Pagrindinis puslapis
METAR-TAF:

METAR-TAF

Oro uostai :

Juanjuí, Peru

platuma: 07-10-10S, ilguma: 076-43-45W, Aukštis: 350 m

METAR: trūkstamas

Laikas: 22:23 (03:23 UTC)

Prognozė

Ataskaita buvo paskelbta 10 valandos ir 23 minutes, ne 17:00 UTC
Prognozė galioja nuo 15 metu 18 UTC su 16 metu 18 UTC
Vėjas 2 kt nuo kintamojo kryptimis
Matomumas 10 km arba daugiau
Mažai debesys ne aukštis 2000 ft
Su prošvaistėmis ne aukštis 10000 ft
Tikimybė 30% :
Laikinai
nuo 16 metu 09 UTC su 16 metu 13 UTC
Vėjas kt iš Šiaurės
Matomumas: 3000 m
Su prošvaistėmis ne aukštis 1200 ft
Apsiniaukę ne aukštis 10000 ft
rūkana, lietus

TAF: SPJI 151700Z 1518/1618 VRB02KT 9999 FEW020 BKN100 TX32/1521Z TN22/1611Z PROB30 TEMPO 1609/1613 00000KT 3000 BR -RA BKN012 OVC100

Orai ataskaitas ir orų prognozės (METAR, TAF).

turimą stotys yra geltonos ir raudonos taškus žemėlapyje.

Perkelti pele per norėdami pamatyti stoties vardą.

Tada spustelėkite, norėdami matyti oro stebėjimo ir prognozės.

Norėdami pakeisti žemėlapį: spustelėkite ant žalios mygtukų su juodo kryžiaus žemyn,; žalią mygtuką su brūkšneliu, jei norite nutolinti; arba žalių rodyklių gretimoms žemėlapius.


METAR-TAF: